sensor_id;sensor_type;location;lat;lon;timestamp;P1;durP1;ratioP1;P2;durP2;ratioP2
4208;SDS011;36320;48.860;2.380;2023-03-01T00:01:26;12.70;;;1.80;;
4208;SDS011;36320;48.860;2.380;2023-03-01T00:03:52;8.00;;;2.10;;
4208;SDS011;36320;48.860;2.380;2023-03-01T00:06:19;6.57;;;1.90;;
4208;SDS011;36320;48.860;2.380;2023-03-01T00:08:46;9.15;;;1.55;;
4208;SDS011;36320;48.860;2.380;2023-03-01T00:11:13;8.93;;;2.22;;
4208;SDS011;36320;48.860;2.380;2023-03-01T00:13:40;5.85;;;1.58;;
4208;SDS011;36320;48.860;2.380;2023-03-01T00:16:07;6.35;;;1.80;;
4208;SDS011;36320;48.860;2.380;2023-03-01T00:18:34;5.53;;;1.40;;
4208;SDS011;36320;48.860;2.380;2023-03-01T00:21:08;7.30;;;1.90;;
4208;SDS011;36320;48.860;2.380;2023-03-01T00:23:49;6.25;;;1.58;;
4208;SDS011;36320;48.860;2.380;2023-03-01T00:26:16;8.48;;;1.70;;
4208;SDS011;36320;48.860;2.380;2023-03-01T00:28:45;6.90;;;1.70;;
4208;SDS011;36320;48.860;2.380;2023-03-01T00:31:30;5.78;;;1.60;;
4208;SDS011;36320;48.860;2.380;2023-03-01T00:33:57;8.90;;;2.00;;
4208;SDS011;36320;48.860;2.380;2023-03-01T00:36:24;6.90;;;1.63;;
4208;SDS011;36320;48.860;2.380;2023-03-01T00:38:50;6.18;;;1.70;;
4208;SDS011;36320;48.860;2.380;2023-03-01T00:41:17;7.32;;;2.00;;
4208;SDS011;36320;48.860;2.380;2023-03-01T00:43:44;5.55;;;1.48;;
4208;SDS011;36320;48.860;2.380;2023-03-01T00:46:15;6.05;;;1.48;;
4208;SDS011;36320;48.860;2.380;2023-03-01T00:48:41;7.70;;;1.60;;
4208;SDS011;36320;48.860;2.380;2023-03-01T00:51:10;6.05;;;1.52;;
4208;SDS011;36320;48.860;2.380;2023-03-01T00:53:37;6.30;;;1.63;;
4208;SDS011;36320;48.860;2.380;2023-03-01T00:56:04;5.88;;;1.77;;
4208;SDS011;36320;48.860;2.380;2023-03-01T00:58:30;7.28;;;1.70;;
4208;SDS011;36320;48.860;2.380;2023-03-01T01:00:56;6.20;;;1.67;;
4208;SDS011;36320;48.860;2.380;2023-03-01T01:03:22;8.20;;;1.70;;
4208;SDS011;36320;48.860;2.380;2023-03-01T01:05:50;6.63;;;1.70;;
4208;SDS011;36320;48.860;2.380;2023-03-01T01:08:16;7.00;;;1.60;;
4208;SDS011;36320;48.860;2.380;2023-03-01T01:10:43;7.80;;;1.83;;
4208;SDS011;36320;48.860;2.380;2023-03-01T01:13:09;6.20;;;1.80;;
4208;SDS011;36320;48.860;2.380;2023-03-01T01:15:35;6.63;;;1.58;;
4208;SDS011;36320;48.860;2.380;2023-03-01T01:18:01;5.45;;;1.20;;
4208;SDS011;36320;48.860;2.380;2023-03-01T01:20:31;6.35;;;1.75;;
4208;SDS011;36320;48.860;2.380;2023-03-01T01:22:57;6.22;;;1.92;;
4208;SDS011;36320;48.860;2.380;2023-03-01T01:25:23;6.68;;;1.92;;
4208;SDS011;36320;48.860;2.380;2023-03-01T01:27:52;18.25;;;1.90;;
4208;SDS011;36320;48.860;2.380;2023-03-01T01:30:18;7.05;;;1.83;;
4208;SDS011;36320;48.860;2.380;2023-03-01T01:32:44;7.97;;;1.70;;
4208;SDS011;36320;48.860;2.380;2023-03-01T01:35:10;6.70;;;1.77;;
4208;SDS011;36320;48.860;2.380;2023-03-01T01:37:36;10.77;;;2.15;;
4208;SDS011;36320;48.860;2.380;2023-03-01T01:40:02;5.60;;;1.33;;
4208;SDS011;36320;48.860;2.380;2023-03-01T01:42:29;6.70;;;1.92;;
4208;SDS011;36320;48.860;2.380;2023-03-01T01:47:40;6.80;;;2.10;;
4208;SDS011;36320;48.860;2.380;2023-03-01T01:50:08;6.70;;;2.00;;
4208;SDS011;36320;48.860;2.380;2023-03-01T01:52:40;6.67;;;1.80;;
4208;SDS011;36320;48.860;2.380;2023-03-01T01:55:18;5.60;;;1.60;;
4208;SDS011;36320;48.860;2.380;2023-03-01T01:57:52;6.60;;;1.77;;
4208;SDS011;36320;48.860;2.380;2023-03-01T02:00:23;8.13;;;2.28;;
4208;SDS011;36320;48.860;2.380;2023-03-01T02:02:50;6.00;;;1.67;;
4208;SDS011;36320;48.860;2.380;2023-03-01T02:05:25;6.70;;;1.95;;
4208;SDS011;36320;48.860;2.380;2023-03-01T02:07:52;6.82;;;1.80;;
4208;SDS011;36320;48.860;2.380;2023-03-01T02:10:18;5.55;;;1.50;;
4208;SDS011;36320;48.860;2.380;2023-03-01T02:12:44;5.80;;;1.30;;
4208;SDS011;36320;48.860;2.380;2023-03-01T02:15:11;7.13;;;2.10;;
4208;SDS011;36320;48.860;2.380;2023-03-01T02:17:37;6.78;;;1.65;;
4208;SDS011;36320;48.860;2.380;2023-03-01T02:22:32;15.20;;;1.80;;
4208;SDS011;36320;48.860;2.380;2023-03-01T02:27:42;6.75;;;1.83;;
4208;SDS011;36320;48.860;2.380;2023-03-01T02:30:11;6.33;;;1.77;;
4208;SDS011;36320;48.860;2.380;2023-03-01T02:32:38;7.07;;;2.00;;
4208;SDS011;36320;48.860;2.380;2023-03-01T02:35:07;7.87;;;2.20;;
4208;SDS011;36320;48.860;2.380;2023-03-01T02:37:33;5.83;;;1.60;;
4208;SDS011;36320;48.860;2.380;2023-03-01T02:40:02;10.02;;;2.25;;
4208;SDS011;36320;48.860;2.380;2023-03-01T02:42:35;8.55;;;1.77;;
4208;SDS011;36320;48.860;2.380;2023-03-01T02:45:02;6.38;;;1.50;;
4208;SDS011;36320;48.860;2.380;2023-03-01T02:47:29;7.32;;;1.85;;
4208;SDS011;36320;48.860;2.380;2023-03-01T02:49:55;7.07;;;2.00;;
4208;SDS011;36320;48.860;2.380;2023-03-01T02:52:34;6.90;;;1.83;;
4208;SDS011;36320;48.860;2.380;2023-03-01T02:55:08;7.35;;;2.03;;
4208;SDS011;36320;48.860;2.380;2023-03-01T02:57:35;6.72;;;1.80;;
4208;SDS011;36320;48.860;2.380;2023-03-01T03:00:04;7.32;;;1.58;;
4208;SDS011;36320;48.860;2.380;2023-03-01T03:02:33;7.20;;;1.80;;
4208;SDS011;36320;48.860;2.380;2023-03-01T03:05:04;8.50;;;1.70;;
4208;SDS011;36320;48.860;2.380;2023-03-01T03:07:31;8.80;;;2.50;;
4208;SDS011;36320;48.860;2.380;2023-03-01T03:09:58;7.32;;;1.90;;
4208;SDS011;36320;48.860;2.380;2023-03-01T03:12:24;7.43;;;2.13;;
4208;SDS011;36320;48.860;2.380;2023-03-01T03:14:50;6.70;;;1.60;;
4208;SDS011;36320;48.860;2.380;2023-03-01T03:17:16;6.95;;;1.80;;
4208;SDS011;36320;48.860;2.380;2023-03-01T03:19:42;6.13;;;1.55;;
4208;SDS011;36320;48.860;2.380;2023-03-01T03:22:10;11.03;;;2.20;;
4208;SDS011;36320;48.860;2.380;2023-03-01T03:24:36;8.40;;;2.22;;
4208;SDS011;36320;48.860;2.380;2023-03-01T03:27:03;6.65;;;2.00;;
4208;SDS011;36320;48.860;2.380;2023-03-01T03:29:29;7.10;;;2.22;;
4208;SDS011;36320;48.860;2.380;2023-03-01T03:31:55;6.80;;;2.10;;
4208;SDS011;36320;48.860;2.380;2023-03-01T03:34:21;6.65;;;1.70;;
4208;SDS011;36320;48.860;2.380;2023-03-01T03:36:47;5.85;;;1.52;;
4208;SDS011;36320;48.860;2.380;2023-03-01T03:39:13;7.30;;;2.20;;
4208;SDS011;36320;48.860;2.380;2023-03-01T03:41:39;10.05;;;2.60;;
4208;SDS011;36320;48.860;2.380;2023-03-01T03:44:05;6.20;;;1.80;;
4208;SDS011;36320;48.860;2.380;2023-03-01T03:46:31;6.50;;;1.97;;
4208;SDS011;36320;48.860;2.380;2023-03-01T03:48:57;7.10;;;2.10;;
4208;SDS011;36320;48.860;2.380;2023-03-01T03:51:23;7.50;;;1.48;;
4208;SDS011;36320;48.860;2.380;2023-03-01T03:53:49;8.18;;;1.83;;
4208;SDS011;36320;48.860;2.380;2023-03-01T03:56:15;13.20;;;1.98;;
4208;SDS011;36320;48.860;2.380;2023-03-01T03:58:41;6.43;;;1.45;;
4208;SDS011;36320;48.860;2.380;2023-03-01T04:01:07;8.80;;;2.10;;
4208;SDS011;36320;48.860;2.380;2023-03-01T04:03:33;6.43;;;1.90;;
4208;SDS011;36320;48.860;2.380;2023-03-01T04:06:00;5.88;;;1.65;;
4208;SDS011;36320;48.860;2.380;2023-03-01T04:08:30;13.98;;;2.20;;
4208;SDS011;36320;48.860;2.380;2023-03-01T04:10:57;6.20;;;1.42;;
4208;SDS011;36320;48.860;2.380;2023-03-01T04:13:23;6.15;;;1.90;;
4208;SDS011;36320;48.860;2.380;2023-03-01T04:15:53;7.88;;;2.33;;
4208;SDS011;36320;48.860;2.380;2023-03-01T04:18:20;7.22;;;2.45;;
4208;SDS011;36320;48.860;2.380;2023-03-01T04:20:46;7.28;;;1.70;;
4208;SDS011;36320;48.860;2.380;2023-03-01T04:23:17;10.20;;;1.88;;
4208;SDS011;36320;48.860;2.380;2023-03-01T04:25:49;6.27;;;1.90;;
4208;SDS011;36320;48.860;2.380;2023-03-01T04:28:40;6.30;;;1.65;;
4208;SDS011;36320;48.860;2.380;2023-03-01T04:31:06;7.55;;;2.00;;
4208;SDS011;36320;48.860;2.380;2023-03-01T04:33:51;8.32;;;1.90;;
4208;SDS011;36320;48.860;2.380;2023-03-01T04:36:18;6.60;;;1.83;;
4208;SDS011;36320;48.860;2.380;2023-03-01T04:38:44;5.90;;;1.50;;
4208;SDS011;36320;48.860;2.380;2023-03-01T04:41:14;6.30;;;1.40;;
4208;SDS011;36320;48.860;2.380;2023-03-01T04:43:41;9.23;;;2.00;;
4208;SDS011;36320;48.860;2.380;2023-03-01T04:46:08;8.07;;;1.70;;
4208;SDS011;36320;48.860;2.380;2023-03-01T04:48:38;6.80;;;1.70;;
4208;SDS011;36320;48.860;2.380;2023-03-01T04:51:04;7.93;;;2.07;;
4208;SDS011;36320;48.860;2.380;2023-03-01T04:53:31;6.88;;;2.05;;
4208;SDS011;36320;48.860;2.380;2023-03-01T04:55:57;6.50;;;1.60;;
4208;SDS011;36320;48.860;2.380;2023-03-01T04:58:24;5.43;;;1.30;;
4208;SDS011;36320;48.860;2.380;2023-03-01T05:00:50;5.90;;;1.33;;
4208;SDS011;36320;48.860;2.380;2023-03-01T05:03:17;6.97;;;1.92;;
4208;SDS011;36320;48.860;2.380;2023-03-01T05:05:43;6.20;;;1.73;;
4208;SDS011;36320;48.860;2.380;2023-03-01T05:08:10;6.65;;;1.60;;
4208;SDS011;36320;48.860;2.380;2023-03-01T05:10:52;14.80;;;2.10;;
4208;SDS011;36320;48.860;2.380;2023-03-01T05:13:19;6.45;;;1.70;;
4208;SDS011;36320;48.860;2.380;2023-03-01T05:15:53;5.60;;;1.30;;
4208;SDS011;36320;48.860;2.380;2023-03-01T05:18:20;6.68;;;2.05;;
4208;SDS011;36320;48.860;2.380;2023-03-01T05:20:50;16.55;;;2.28;;
4208;SDS011;36320;48.860;2.380;2023-03-01T05:23:17;6.18;;;1.90;;
4208;SDS011;36320;48.860;2.380;2023-03-01T05:25:43;6.10;;;1.70;;
4208;SDS011;36320;48.860;2.380;2023-03-01T05:28:11;8.52;;;2.13;;
4208;SDS011;36320;48.860;2.380;2023-03-01T05:30:37;8.67;;;2.33;;
4208;SDS011;36320;48.860;2.380;2023-03-01T05:33:07;7.78;;;2.10;;
4208;SDS011;36320;48.860;2.380;2023-03-01T05:35:38;6.40;;;1.73;;
4208;SDS011;36320;48.860;2.380;2023-03-01T05:38:04;6.40;;;1.80;;
4208;SDS011;36320;48.860;2.380;2023-03-01T05:40:32;6.70;;;2.00;;
4208;SDS011;36320;48.860;2.380;2023-03-01T05:42:59;7.57;;;1.95;;
4208;SDS011;36320;48.860;2.380;2023-03-01T05:45:25;7.40;;;2.10;;
4208;SDS011;36320;48.860;2.380;2023-03-01T05:47:52;8.25;;;2.28;;
4208;SDS011;36320;48.860;2.380;2023-03-01T05:50:20;6.13;;;1.90;;
4208;SDS011;36320;48.860;2.380;2023-03-01T05:52:47;5.90;;;1.50;;
4208;SDS011;36320;48.860;2.380;2023-03-01T05:55:17;7.00;;;2.13;;
4208;SDS011;36320;48.860;2.380;2023-03-01T05:57:43;7.60;;;2.00;;
4208;SDS011;36320;48.860;2.380;2023-03-01T06:00:10;7.50;;;1.85;;
4208;SDS011;36320;48.860;2.380;2023-03-01T06:02:36;6.20;;;1.80;;
4208;SDS011;36320;48.860;2.380;2023-03-01T06:05:03;6.70;;;1.63;;
4208;SDS011;36320;48.860;2.380;2023-03-01T06:07:30;7.20;;;2.25;;
4208;SDS011;36320;48.860;2.380;2023-03-01T06:09:56;6.90;;;1.90;;
4208;SDS011;36320;48.860;2.380;2023-03-01T06:12:22;8.48;;;2.00;;
4208;SDS011;36320;48.860;2.380;2023-03-01T06:14:48;8.02;;;2.03;;
4208;SDS011;36320;48.860;2.380;2023-03-01T06:17:14;7.55;;;2.45;;
4208;SDS011;36320;48.860;2.380;2023-03-01T06:19:40;6.32;;;1.73;;
4208;SDS011;36320;48.860;2.380;2023-03-01T06:22:06;6.03;;;1.57;;
4208;SDS011;36320;48.860;2.380;2023-03-01T06:24:32;6.97;;;2.33;;
4208;SDS011;36320;48.860;2.380;2023-03-01T06:26:58;7.40;;;2.20;;
4208;SDS011;36320;48.860;2.380;2023-03-01T06:29:24;7.90;;;1.90;;
4208;SDS011;36320;48.860;2.380;2023-03-01T06:31:50;8.10;;;2.40;;
4208;SDS011;36320;48.860;2.380;2023-03-01T06:34:16;8.23;;;2.40;;
4208;SDS011;36320;48.860;2.380;2023-03-01T06:36:42;7.30;;;2.38;;
4208;SDS011;36320;48.860;2.380;2023-03-01T06:39:08;7.47;;;2.75;;
4208;SDS011;36320;48.860;2.380;2023-03-01T06:41:34;8.18;;;1.85;;
4208;SDS011;36320;48.860;2.380;2023-03-01T06:44:00;7.53;;;2.05;;
4208;SDS011;36320;48.860;2.380;2023-03-01T06:46:27;8.80;;;2.20;;
4208;SDS011;36320;48.860;2.380;2023-03-01T06:48:53;7.18;;;2.30;;
4208;SDS011;36320;48.860;2.380;2023-03-01T06:51:19;5.70;;;1.60;;
4208;SDS011;36320;48.860;2.380;2023-03-01T06:53:46;11.55;;;3.80;;
4208;SDS011;36320;48.860;2.380;2023-03-01T06:56:12;11.00;;;3.88;;
4208;SDS011;36320;48.860;2.380;2023-03-01T06:58:38;12.27;;;4.32;;
4208;SDS011;36320;48.860;2.380;2023-03-01T07:01:05;10.80;;;3.60;;
4208;SDS011;36320;48.860;2.380;2023-03-01T07:03:31;10.98;;;4.00;;
4208;SDS011;36320;48.860;2.380;2023-03-01T07:05:57;14.55;;;4.20;;
4208;SDS011;36320;48.860;2.380;2023-03-01T07:08:23;12.52;;;4.50;;
4208;SDS011;36320;48.860;2.380;2023-03-01T07:10:55;19.63;;;3.90;;
4208;SDS011;36320;48.860;2.380;2023-03-01T07:13:25;15.80;;;4.10;;
4208;SDS011;36320;48.860;2.380;2023-03-01T07:15:51;11.93;;;3.80;;
4208;SDS011;36320;48.860;2.380;2023-03-01T07:18:18;16.20;;;4.28;;
4208;SDS011;36320;48.860;2.380;2023-03-01T07:20:44;11.95;;;4.18;;
4208;SDS011;36320;48.860;2.380;2023-03-01T07:23:11;15.38;;;5.10;;
4208;SDS011;36320;48.860;2.380;2023-03-01T07:25:37;13.32;;;4.60;;
4208;SDS011;36320;48.860;2.380;2023-03-01T07:28:04;13.07;;;4.22;;
4208;SDS011;36320;48.860;2.380;2023-03-01T07:30:30;11.25;;;3.85;;
4208;SDS011;36320;48.860;2.380;2023-03-01T07:32:58;11.43;;;3.88;;
4208;SDS011;36320;48.860;2.380;2023-03-01T07:35:25;12.55;;;4.00;;
4208;SDS011;36320;48.860;2.380;2023-03-01T07:37:51;13.90;;;3.90;;
4208;SDS011;36320;48.860;2.380;2023-03-01T07:40:18;10.95;;;3.42;;
4208;SDS011;36320;48.860;2.380;2023-03-01T07:42:44;9.57;;;4.00;;
4208;SDS011;36320;48.860;2.380;2023-03-01T07:45:11;11.98;;;4.15;;
4208;SDS011;36320;48.860;2.380;2023-03-01T07:47:38;11.38;;;3.95;;
4208;SDS011;36320;48.860;2.380;2023-03-01T07:50:07;11.30;;;4.10;;
4208;SDS011;36320;48.860;2.380;2023-03-01T07:52:34;11.30;;;3.90;;
4208;SDS011;36320;48.860;2.380;2023-03-01T07:55:00;15.93;;;3.83;;
4208;SDS011;36320;48.860;2.380;2023-03-01T07:57:26;30.15;;;4.80;;
4208;SDS011;36320;48.860;2.380;2023-03-01T07:59:53;13.07;;;4.53;;
4208;SDS011;36320;48.860;2.380;2023-03-01T08:02:20;10.77;;;4.35;;
4208;SDS011;36320;48.860;2.380;2023-03-01T08:04:46;11.65;;;4.20;;
4208;SDS011;36320;48.860;2.380;2023-03-01T08:07:12;11.63;;;4.55;;
4208;SDS011;36320;48.860;2.380;2023-03-01T08:09:38;11.30;;;3.90;;
4208;SDS011;36320;48.860;2.380;2023-03-01T08:12:04;9.85;;;3.50;;
4208;SDS011;36320;48.860;2.380;2023-03-01T08:14:34;12.13;;;4.47;;
4208;SDS011;36320;48.860;2.380;2023-03-01T08:17:00;12.57;;;4.60;;
4208;SDS011;36320;48.860;2.380;2023-03-01T08:19:28;13.82;;;4.07;;
4208;SDS011;36320;48.860;2.380;2023-03-01T08:21:54;12.48;;;4.40;;
4208;SDS011;36320;48.860;2.380;2023-03-01T08:24:23;13.13;;;4.40;;
4208;SDS011;36320;48.860;2.380;2023-03-01T08:26:50;16.23;;;4.18;;
4208;SDS011;36320;48.860;2.380;2023-03-01T08:29:18;11.73;;;5.00;;
4208;SDS011;36320;48.860;2.380;2023-03-01T08:31:44;12.40;;;4.57;;
4208;SDS011;36320;48.860;2.380;2023-03-01T08:34:11;13.23;;;4.43;;
4208;SDS011;36320;48.860;2.380;2023-03-01T08:36:40;12.85;;;4.78;;
4208;SDS011;36320;48.860;2.380;2023-03-01T08:39:07;12.90;;;4.75;;
4208;SDS011;36320;48.860;2.380;2023-03-01T08:41:34;11.63;;;4.45;;
4208;SDS011;36320;48.860;2.380;2023-03-01T08:44:06;11.70;;;3.97;;
4208;SDS011;36320;48.860;2.380;2023-03-01T08:46:34;11.20;;;4.63;;
4208;SDS011;36320;48.860;2.380;2023-03-01T08:49:04;18.90;;;4.88;;
4208;SDS011;36320;48.860;2.380;2023-03-01T08:51:31;15.55;;;4.88;;
4208;SDS011;36320;48.860;2.380;2023-03-01T08:54:02;10.38;;;4.03;;
4208;SDS011;36320;48.860;2.380;2023-03-01T08:56:28;12.10;;;4.30;;
4208;SDS011;36320;48.860;2.380;2023-03-01T08:58:54;14.55;;;3.83;;
4208;SDS011;36320;48.860;2.380;2023-03-01T09:01:20;12.55;;;4.35;;
4208;SDS011;36320;48.860;2.380;2023-03-01T09:03:46;14.05;;;4.47;;
4208;SDS011;36320;48.860;2.380;2023-03-01T09:06:13;11.63;;;4.15;;
4208;SDS011;36320;48.860;2.380;2023-03-01T09:08:40;11.35;;;4.47;;
4208;SDS011;36320;48.860;2.380;2023-03-01T09:11:07;11.33;;;4.10;;
4208;SDS011;36320;48.860;2.380;2023-03-01T09:13:34;13.85;;;4.07;;
4208;SDS011;36320;48.860;2.380;2023-03-01T09:16:01;19.83;;;4.10;;
4208;SDS011;36320;48.860;2.380;2023-03-01T09:18:28;15.15;;;4.57;;
4208;SDS011;36320;48.860;2.380;2023-03-01T09:21:08;12.63;;;4.50;;
4208;SDS011;36320;48.860;2.380;2023-03-01T09:23:36;13.38;;;4.55;;
4208;SDS011;36320;48.860;2.380;2023-03-01T09:26:05;13.15;;;4.30;;
4208;SDS011;36320;48.860;2.380;2023-03-01T09:28:31;11.18;;;3.80;;
4208;SDS011;36320;48.860;2.380;2023-03-01T09:30:58;11.60;;;4.50;;
4208;SDS011;36320;48.860;2.380;2023-03-01T09:33:25;11.35;;;3.72;;
4208;SDS011;36320;48.860;2.380;2023-03-01T09:35:55;12.00;;;4.38;;
4208;SDS011;36320;48.860;2.380;2023-03-01T09:38:23;11.95;;;4.38;;
4208;SDS011;36320;48.860;2.380;2023-03-01T09:40:49;13.82;;;4.80;;
4208;SDS011;36320;48.860;2.380;2023-03-01T09:46:08;11.27;;;4.28;;
4208;SDS011;36320;48.860;2.380;2023-03-01T09:48:41;15.85;;;4.30;;
4208;SDS011;36320;48.860;2.380;2023-03-01T09:51:12;12.38;;;4.20;;
4208;SDS011;36320;48.860;2.380;2023-03-01T09:53:41;9.95;;;3.75;;
4208;SDS011;36320;48.860;2.380;2023-03-01T09:56:19;11.70;;;4.45;;
4208;SDS011;36320;48.860;2.380;2023-03-01T10:04:27;13.82;;;4.68;;
4208;SDS011;36320;48.860;2.380;2023-03-01T10:07:17;12.23;;;4.50;;
4208;SDS011;36320;48.860;2.380;2023-03-01T10:09:42;12.20;;;4.53;;
4208;SDS011;36320;48.860;2.380;2023-03-01T10:12:13;15.35;;;4.90;;
4208;SDS011;36320;48.860;2.380;2023-03-01T10:17:36;23.70;;;4.30;;
4208;SDS011;36320;48.860;2.380;2023-03-01T10:20:25;11.88;;;4.70;;
4208;SDS011;36320;48.860;2.380;2023-03-01T10:22:50;11.32;;;4.25;;
4208;SDS011;36320;48.860;2.380;2023-03-01T10:25:24;10.95;;;4.63;;
4208;SDS011;36320;48.860;2.380;2023-03-01T10:27:52;13.10;;;4.90;;
4208;SDS011;36320;48.860;2.380;2023-03-01T10:30:26;12.73;;;4.73;;
4208;SDS011;36320;48.860;2.380;2023-03-01T10:32:55;11.50;;;4.47;;
4208;SDS011;36320;48.860;2.380;2023-03-01T10:35:32;11.27;;;4.32;;
4208;SDS011;36320;48.860;2.380;2023-03-01T10:40:31;14.23;;;4.80;;
4208;SDS011;36320;48.860;2.380;2023-03-01T10:43:03;13.23;;;4.55;;
4208;SDS011;36320;48.860;2.380;2023-03-01T10:45:31;13.00;;;4.85;;
4208;SDS011;36320;48.860;2.380;2023-03-01T10:48:19;14.40;;;4.90;;
4208;SDS011;36320;48.860;2.380;2023-03-01T10:51:04;15.37;;;5.10;;
4208;SDS011;36320;48.860;2.380;2023-03-01T10:53:45;14.00;;;4.78;;
4208;SDS011;36320;48.860;2.380;2023-03-01T10:56:16;11.75;;;4.82;;
4208;SDS011;36320;48.860;2.380;2023-03-01T10:59:00;13.00;;;5.53;;
4208;SDS011;36320;48.860;2.380;2023-03-01T11:01:30;14.07;;;5.18;;
4208;SDS011;36320;48.860;2.380;2023-03-01T11:06:57;12.35;;;4.57;;
4208;SDS011;36320;48.860;2.380;2023-03-01T11:09:21;11.90;;;4.60;;
4208;SDS011;36320;48.860;2.380;2023-03-01T11:11:57;14.88;;;5.00;;
4208;SDS011;36320;48.860;2.380;2023-03-01T11:14:39;18.65;;;4.90;;
4208;SDS011;36320;48.860;2.380;2023-03-01T11:17:28;11.93;;;4.30;;
4208;SDS011;36320;48.860;2.380;2023-03-01T11:22:32;12.30;;;4.57;;
4208;SDS011;36320;48.860;2.380;2023-03-01T11:25:02;12.82;;;4.30;;
4208;SDS011;36320;48.860;2.380;2023-03-01T11:27:30;15.23;;;4.05;;
4208;SDS011;36320;48.860;2.380;2023-03-01T11:30:03;13.30;;;4.23;;
4208;SDS011;36320;48.860;2.380;2023-03-01T11:35:21;12.47;;;4.70;;
4208;SDS011;36320;48.860;2.380;2023-03-01T11:37:56;13.43;;;5.07;;
4208;SDS011;36320;48.860;2.380;2023-03-01T11:40:25;15.73;;;5.50;;
4208;SDS011;36320;48.860;2.380;2023-03-01T11:46:02;13.95;;;4.80;;
4208;SDS011;36320;48.860;2.380;2023-03-01T11:48:52;17.77;;;5.10;;
4208;SDS011;36320;48.860;2.380;2023-03-01T11:51:25;15.07;;;5.57;;
4208;SDS011;36320;48.860;2.380;2023-03-01T11:54:00;14.07;;;4.87;;
4208;SDS011;36320;48.860;2.380;2023-03-01T12:09:29;14.32;;;4.60;;
4208;SDS011;36320;48.860;2.380;2023-03-01T12:12:01;16.05;;;5.32;;
4208;SDS011;36320;48.860;2.380;2023-03-01T12:14:34;13.98;;;4.72;;
4208;SDS011;36320;48.860;2.380;2023-03-01T12:17:57;14.00;;;5.00;;
4208;SDS011;36320;48.860;2.380;2023-03-01T12:29:15;13.45;;;4.85;;
4208;SDS011;36320;48.860;2.380;2023-03-01T12:42:30;13.05;;;4.38;;
4208;SDS011;36320;48.860;2.380;2023-03-01T12:50:47;16.70;;;5.40;;
4208;SDS011;36320;48.860;2.380;2023-03-01T12:56:29;15.18;;;5.55;;
4208;SDS011;36320;48.860;2.380;2023-03-01T13:04:20;14.65;;;4.80;;
4208;SDS011;36320;48.860;2.380;2023-03-01T13:15:34;14.20;;;5.07;;
4208;SDS011;36320;48.860;2.380;2023-03-01T13:18:04;18.95;;;6.10;;
4208;SDS011;36320;48.860;2.380;2023-03-01T13:21:00;17.45;;;5.75;;
4208;SDS011;36320;48.860;2.380;2023-03-01T13:23:31;13.88;;;4.60;;
4208;SDS011;36320;48.860;2.380;2023-03-01T13:26:05;17.85;;;4.68;;
4208;SDS011;36320;48.860;2.380;2023-03-01T13:33:47;13.73;;;5.05;;
4208;SDS011;36320;48.860;2.380;2023-03-01T13:46:47;14.53;;;5.97;;
4208;SDS011;36320;48.860;2.380;2023-03-01T13:49:19;16.70;;;4.82;;
4208;SDS011;36320;48.860;2.380;2023-03-01T13:51:50;14.67;;;5.50;;
4208;SDS011;36320;48.860;2.380;2023-03-01T13:54:20;12.80;;;4.78;;
4208;SDS011;36320;48.860;2.380;2023-03-01T13:57:00;13.73;;;5.32;;
4208;SDS011;36320;48.860;2.380;2023-03-01T13:59:26;13.17;;;4.90;;
4208;SDS011;36320;48.860;2.380;2023-03-01T14:01:59;16.23;;;5.03;;
4208;SDS011;36320;48.860;2.380;2023-03-01T14:04:32;15.93;;;5.03;;
4208;SDS011;36320;48.860;2.380;2023-03-01T14:07:12;14.50;;;5.28;;
4208;SDS011;36320;48.860;2.380;2023-03-01T14:09:51;17.52;;;5.03;;
4208;SDS011;36320;48.860;2.380;2023-03-01T14:15:20;12.50;;;4.70;;
4208;SDS011;36320;48.860;2.380;2023-03-01T14:18:08;22.65;;;5.93;;
4208;SDS011;36320;48.860;2.380;2023-03-01T14:20:48;13.10;;;4.70;;
4208;SDS011;36320;48.860;2.380;2023-03-01T14:23:18;18.85;;;5.32;;
4208;SDS011;36320;48.860;2.380;2023-03-01T14:25:58;14.73;;;5.60;;
4208;SDS011;36320;48.860;2.380;2023-03-01T14:28:27;15.80;;;5.77;;
4208;SDS011;36320;48.860;2.380;2023-03-01T14:30:57;15.85;;;5.30;;
4208;SDS011;36320;48.860;2.380;2023-03-01T14:33:25;14.57;;;5.20;;
4208;SDS011;36320;48.860;2.380;2023-03-01T14:36:05;15.15;;;5.80;;
4208;SDS011;36320;48.860;2.380;2023-03-01T14:38:34;15.45;;;5.85;;
4208;SDS011;36320;48.860;2.380;2023-03-01T14:41:07;16.15;;;5.55;;
4208;SDS011;36320;48.860;2.380;2023-03-01T14:46:24;16.77;;;5.70;;
4208;SDS011;36320;48.860;2.380;2023-03-01T14:49:03;16.25;;;5.28;;
4208;SDS011;36320;48.860;2.380;2023-03-01T14:52:45;13.63;;;4.93;;
4208;SDS011;36320;48.860;2.380;2023-03-01T14:54:53;22.05;;;5.40;;
4208;SDS011;36320;48.860;2.380;2023-03-01T14:57:21;15.35;;;5.45;;
4208;SDS011;36320;48.860;2.380;2023-03-01T14:59:52;16.53;;;5.77;;
4208;SDS011;36320;48.860;2.380;2023-03-01T15:02:26;14.20;;;5.50;;
4208;SDS011;36320;48.860;2.380;2023-03-01T15:04:54;14.60;;;5.03;;
4208;SDS011;36320;48.860;2.380;2023-03-01T15:07:26;17.23;;;5.30;;
4208;SDS011;36320;48.860;2.380;2023-03-01T15:09:55;14.40;;;5.88;;
4208;SDS011;36320;48.860;2.380;2023-03-01T15:12:40;16.50;;;5.15;;
4208;SDS011;36320;48.860;2.380;2023-03-01T15:18:18;14.87;;;5.10;;
4208;SDS011;36320;48.860;2.380;2023-03-01T15:20:51;13.10;;;5.15;;
4208;SDS011;36320;48.860;2.380;2023-03-01T15:23:30;13.75;;;5.38;;
4208;SDS011;36320;48.860;2.380;2023-03-01T15:25:56;11.65;;;4.70;;
4208;SDS011;36320;48.860;2.380;2023-03-01T15:28:27;15.40;;;5.72;;
4208;SDS011;36320;48.860;2.380;2023-03-01T15:30:56;17.00;;;5.68;;
4208;SDS011;36320;48.860;2.380;2023-03-01T15:33:32;14.93;;;5.20;;
4208;SDS011;36320;48.860;2.380;2023-03-01T15:38:57;19.52;;;5.90;;
4208;SDS011;36320;48.860;2.380;2023-03-01T15:41:28;19.25;;;5.13;;
4208;SDS011;36320;48.860;2.380;2023-03-01T15:44:00;13.23;;;5.05;;
4208;SDS011;36320;48.860;2.380;2023-03-01T15:46:39;16.60;;;6.00;;
4208;SDS011;36320;48.860;2.380;2023-03-01T15:49:19;17.38;;;6.63;;
4208;SDS011;36320;48.860;2.380;2023-03-01T15:51:49;14.38;;;5.47;;
4208;SDS011;36320;48.860;2.380;2023-03-01T15:54:18;13.93;;;5.17;;
4208;SDS011;36320;48.860;2.380;2023-03-01T15:56:46;15.07;;;6.00;;
4208;SDS011;36320;48.860;2.380;2023-03-01T15:59:12;13.63;;;4.80;;
4208;SDS011;36320;48.860;2.380;2023-03-01T16:01:41;14.27;;;4.57;;
4208;SDS011;36320;48.860;2.380;2023-03-01T16:04:11;13.55;;;5.20;;
4208;SDS011;36320;48.860;2.380;2023-03-01T16:06:42;15.50;;;4.47;;
4208;SDS011;36320;48.860;2.380;2023-03-01T16:09:08;13.35;;;4.65;;
4208;SDS011;36320;48.860;2.380;2023-03-01T16:11:35;20.37;;;5.40;;
4208;SDS011;36320;48.860;2.380;2023-03-01T16:14:02;16.83;;;5.20;;
4208;SDS011;36320;48.860;2.380;2023-03-01T16:16:28;15.05;;;5.18;;
4208;SDS011;36320;48.860;2.380;2023-03-01T16:18:55;12.60;;;4.75;;
4208;SDS011;36320;48.860;2.380;2023-03-01T16:21:22;18.98;;;4.63;;
4208;SDS011;36320;48.860;2.380;2023-03-01T16:23:49;15.27;;;5.18;;
4208;SDS011;36320;48.860;2.380;2023-03-01T16:26:16;17.48;;;5.55;;
4208;SDS011;36320;48.860;2.380;2023-03-01T16:28:43;15.52;;;5.57;;
4208;SDS011;36320;48.860;2.380;2023-03-01T16:31:10;12.73;;;4.28;;
4208;SDS011;36320;48.860;2.380;2023-03-01T16:33:36;12.45;;;4.70;;
4208;SDS011;36320;48.860;2.380;2023-03-01T16:36:06;19.40;;;5.47;;
4208;SDS011;36320;48.860;2.380;2023-03-01T16:38:34;13.63;;;4.60;;
4208;SDS011;36320;48.860;2.380;2023-03-01T16:41:00;14.33;;;5.10;;
4208;SDS011;36320;48.860;2.380;2023-03-01T16:43:37;11.65;;;4.30;;
4208;SDS011;36320;48.860;2.380;2023-03-01T16:46:11;14.52;;;4.93;;
4208;SDS011;36320;48.860;2.380;2023-03-01T16:48:55;13.75;;;4.90;;
4208;SDS011;36320;48.860;2.380;2023-03-01T16:51:23;14.55;;;4.88;;
4208;SDS011;36320;48.860;2.380;2023-03-01T16:53:49;14.10;;;5.10;;
4208;SDS011;36320;48.860;2.380;2023-03-01T16:56:17;14.55;;;4.38;;
4208;SDS011;36320;48.860;2.380;2023-03-01T16:58:50;11.53;;;4.27;;
4208;SDS011;36320;48.860;2.380;2023-03-01T17:01:23;13.50;;;4.40;;
4208;SDS011;36320;48.860;2.380;2023-03-01T17:03:50;16.90;;;4.68;;